Metar z pełnej godziny Komunikat METAR ze strony awiacja.imgw.pl Metar G00 EPWA METAR EPWA 261100Z 27017KT 9999 SCT018 BKN030 01/M02 Q1005 R33/2///95 NOSIG=